EDT,Max TemperatureF,Mean TemperatureF,Min TemperatureF,Max Dew PointF,MeanDew PointF,Min DewpointF,Max Humidity, Mean Humidity, Min Humidity, Max Sea Level PressureIn, Mean Sea Level PressureIn, Min Sea Level PressureIn, Max VisibilityMiles, Mean VisibilityMiles, Min VisibilityMiles, Max Wind SpeedMPH, Mean Wind SpeedMPH, Max Gust SpeedMPH,PrecipitationIn, CloudCover, Events, WindDirDegrees
2012-10-1,71,63,55,64,58,54,94,82,64,29.98,29.94,29.89,10,8,1,7,2,,0.00,4,Rain,88
2012-10-2,84,76,68,75,73,64,94,87,74,29.97,29.93,29.89,10,8,4,15,6,21,0.08,5,Rain,158
2012-10-3,89,82,75,75,74,70,94,83,52,30.14,30.06,29.97,10,9,5,12,5,16,0.00,2,,207
2012-10-4,87,78,68,75,68,52,94,74,29,30.16,30.12,30.09,10,8,3,15,5,22,0.00,2,,247
2012-10-5,82,72,62,68,61,52,100,76,35,30.14,30.09,30.01,10,7,0,10,2,,0.00,0,Fog,299
2012-10-6,84,73,62,66,60,50,94,66,45,30.01,29.93,29.85,10,10,3,17,8,24,0.00,1,,237
2012-10-7,64,58,53,54,50,41,94,81,48,30.14,30.06,30.00,10,9,3,16,8,24,0.84,8,Rain,8
2012-10-8,57,54,50,54,49,45,94,86,76,30.27,30.19,30.12,10,10,7,12,6,17,0.64,6,Rain,22
2012-10-9,62,58,55,61,57,52,94,93,88,30.12,30.08,30.04,10,7,2,10,7,17,0.25,8,Rain,357
2012-10-10,71,63,55,63,57,52,100,82,53,30.05,29.98,29.91,10,7,2,15,3,24,0.00,4,Rain,255
2012-10-11,64,53,42,48,41,34,93,57,36,30.30,30.22,30.06,10,10,10,16,9,28,0.00,0,,334
2012-10-12,69,56,44,54,44,34,94,61,31,30.41,30.22,30.16,10,10,10,15,7,23,0.00,0,,304
2012-10-13,64,53,42,48,39,30,93,61,42,30.50,30.43,30.36,10,10,10,8,5,,0.00,1,,73
2012-10-14,78,62,46,63,57,45,100,76,44,30.35,30.20,30.03,10,10,0,13,6,17,0.00,0,Fog,191
2012-10-15,78,70,62,63,61,55,94,75,54,30.02,29.84,29.70,10,10,5,18,8,32,0.41,2,Rain-Thunderstorm,221
2012-10-16,66,56,46,55,48,45,94,67,46,29.94,29.87,29.78,10,10,7,16,8,25,0.00,1,,332
2012-10-17,68,56,44,52,46,43,93,75,45,30.04,29.98,29.92,10,9,1,6,2,,0.00,0,,157
2012-10-18,71,60,48,66,56,46,94,79,53,29.99,29.94,29.84,10,9,2,12,6,21,0.00,2,Rain,132
2012-10-19,77,73,68,70,66,50,94,83,52,29.80,29.74,29.68,10,9,5,13,7,20,0.00,6,Rain,176
2012-10-20,71,61,51,54,49,45,94,66,40,29.90,29.79,29.74,10,10,10,9,5,,0.00,0,,253
2012-10-21,66,56,46,48,45,39,93,64,40,30.13,30.06,29.91,10,10,10,14,6,18,0.00,0,,333
2012-10-22,68,56,44,52,45,39,94,71,35,30.21,30.16,30.13,10,10,7,10,3,,0.00,0,,291
2012-10-23,78,64,50,57,50,41,94,67,26,30.18,30.13,30.09,10,9,2,9,4,,0.00,0,,209
2012-10-24,75,66,57,61,55,54,94,72,47,30.15,30.11,30.07,10,10,4,9,5,,0.00,0,,245
2012-10-25,73,64,55,63,62,54,94,85,69,30.21,30.17,30.13,10,7,0,15,7,18,0.00,4,Fog,79
2012-10-26,75,68,62,64,62,61,94,83,65,30.16,30.09,30.01,10,9,5,15,8,21,0.00,3,,67
2012-10-27,69,66,62,61,59,55,88,80,68,30.00,29.86,29.76,10,10,10,24,13,33,0.04,3,Rain,52
2012-10-28,62,61,60,57,57,55,88,85,82,29.75,29.65,29.54,10,10,5,21,13,34,0.59,8,Rain,22
2012-10-29,55,50,46,52,49,43,100,93,87,29.28,28.90,28.80,10,6,2,45,29,62,1.77,8,Rain,269
2012-10-30,48,46,44,43,41,36,93,84,62,29.52,29.32,28.99,10,10,7,26,16,39,0.43,7,Rain,214
2012-10-31,57,49,41,45,39,36,87,66,47,29.68,29.60,29.52,10,10,10,15,7,20,0.00,1,,237